createdAt,value
2019-01-11T00:02:42.794Z,97294.41
2019-01-11T00:07:46.832Z,97281.16
2019-01-11T00:12:50.868Z,97295.73
2019-01-11T00:17:54.931Z,97311.26
2019-01-11T00:22:59.579Z,97328.45
2019-01-11T00:28:03.880Z,97344.98
2019-01-11T00:33:07.909Z,97355.66
2019-01-11T00:38:11.861Z,97361.23
2019-01-11T00:43:15.926Z,97377.68
2019-01-11T00:48:20.257Z,97380.18
2019-01-11T00:53:24.387Z,97384.65
2019-01-11T00:58:28.197Z,97384.68
2019-01-11T01:03:32.369Z,97383.77
2019-01-11T01:08:36.618Z,97396.28
2019-01-11T01:13:40.567Z,97408.26
2019-01-11T01:18:44.581Z,97408.98
2019-01-11T01:23:51.046Z,97410.21
2019-01-11T01:28:55.109Z,97422.20
2019-01-11T01:33:59.036Z,97424.34
2019-01-11T01:39:05.996Z,97436.66
2019-01-11T01:44:10.021Z,97425.95
2019-01-11T01:49:14.132Z,97423.45
2019-01-11T01:54:18.839Z,97417.72
2019-01-11T01:59:22.822Z,97409.48
2019-01-11T02:04:26.777Z,97420.13
2019-01-11T02:09:30.721Z,97422.98
2019-01-11T02:14:34.643Z,97414.23
2019-01-11T02:19:38.725Z,97427.63
2019-01-11T02:24:45.012Z,97426.63
2019-01-11T02:29:48.936Z,97406.25
2019-01-11T02:34:52.924Z,97427.11
2019-01-11T02:39:56.848Z,97455.87
2019-01-11T02:45:00.774Z,97421.58
2019-01-11T02:50:05.686Z,97450.11
2019-01-11T02:55:09.711Z,97442.59
2019-01-11T03:00:18.852Z,97460.38
2019-01-11T03:05:25.416Z,97461.76
2019-01-11T03:10:29.516Z,97478.87
2019-01-11T03:15:33.514Z,97482.75
2019-01-11T03:20:37.711Z,97504.97
2019-01-11T03:25:44.075Z,97533.00
2019-01-11T03:30:48.083Z,97533.72
2019-01-11T03:35:51.964Z,97551.60
2019-01-11T03:40:55.981Z,97550.16
2019-01-11T03:45:59.884Z,97549.52
2019-01-11T03:51:04.119Z,97566.03
2019-01-11T03:56:08.145Z,97579.13
2019-01-11T04:01:12.128Z,97588.06
2019-01-11T04:06:18.405Z,97579.85
2019-01-11T04:11:22.904Z,97600.03
2019-01-11T04:16:28.958Z,97585.00
2019-01-11T04:21:33.244Z,97590.45
2019-01-11T04:26:39.385Z,97597.15
2019-01-11T04:31:43.424Z,97613.66
2019-01-11T04:36:47.250Z,97603.84
2019-01-11T04:41:51.213Z,97614.41
2019-01-11T04:46:55.175Z,97627.58
2019-01-11T04:51:59.363Z,97632.05
2019-01-11T04:57:03.872Z,97633.44
2019-01-11T05:02:08.109Z,97636.18
2019-01-11T05:07:12.261Z,97645.69
2019-01-11T05:12:16.628Z,97654.36
2019-01-11T05:17:20.538Z,97657.75
2019-01-11T05:22:26.180Z,97680.25
2019-01-11T05:27:34.348Z,97691.29
2019-01-11T05:32:38.524Z,97698.89
2019-01-11T05:37:42.442Z,97707.05
2019-01-11T05:42:46.569Z,97724.16
2019-01-11T05:47:50.478Z,97718.53
2019-01-11T05:52:54.618Z,97715.40
2019-01-11T05:58:27.733Z,97735.20
2019-01-11T06:03:31.697Z,97747.95
2019-01-11T06:08:36.522Z,97735.72
2019-01-11T06:13:40.474Z,97761.38
2019-01-11T06:18:44.517Z,97777.08
2019-01-11T06:23:48.533Z,97797.00
2019-01-11T06:28:53.085Z,97796.50
2019-01-11T06:33:57.157Z,97789.39
2019-01-11T06:39:01.045Z,97801.99
2019-01-11T06:44:05.021Z,97819.63
2019-01-11T06:49:12.096Z,97823.13
2019-01-11T06:54:16.065Z,97833.77
2019-01-11T06:59:20.093Z,97835.16
2019-01-11T07:04:24.181Z,97850.13
2019-01-11T07:09:31.376Z,97863.02
2019-01-11T07:14:36.169Z,97857.92
2019-01-11T07:19:40.044Z,97862.27
2019-01-11T07:24:45.040Z,97855.42
2019-01-11T07:29:49.372Z,97859.48
2019-01-11T07:34:53.631Z,97846.87
2019-01-11T07:39:58.446Z,97852.64
2019-01-11T07:45:03.382Z,97855.92
2019-01-11T07:50:08.082Z,97859.73
2019-01-11T07:55:12.301Z,97858.39
2019-01-11T08:00:17.526Z,97853.69
2019-01-11T08:05:21.627Z,97844.37
2019-01-11T08:10:25.986Z,97857.05
2019-01-11T08:15:31.971Z,97883.54
2019-01-11T08:20:36.224Z,97923.70
2019-01-11T08:25:41.112Z,97913.03
2019-01-11T08:30:46.296Z,97940.98
2019-01-11T08:35:50.711Z,97954.27
2019-01-11T08:40:54.652Z,97963.03
2019-01-11T08:45:59.160Z,97979.42
2019-01-11T08:51:03.934Z,97984.08
2019-01-11T08:56:08.829Z,97982.26
2019-01-11T09:01:13.139Z,97995.48
2019-01-11T09:06:18.757Z,97990.25
2019-01-11T09:11:22.720Z,97991.14
2019-01-11T09:16:26.873Z,97998.66
2019-01-11T09:21:30.871Z,98003.25
2019-01-11T09:26:34.980Z,98013.93
2019-01-11T09:31:41.527Z,97999.58
2019-01-11T09:36:45.758Z,97997.86
2019-01-11T09:41:49.848Z,98016.50
2019-01-11T09:46:54.108Z,98010.73
2019-01-11T09:51:58.194Z,98007.83
2019-01-11T09:57:02.571Z,98000.88
2019-01-11T10:02:25.214Z,97987.41
2019-01-11T10:07:30.375Z,97987.23
2019-01-11T10:12:34.604Z,97966.95
2019-01-11T10:17:38.792Z,97965.88
2019-01-11T10:22:43.244Z,97955.23
2019-01-11T10:27:47.228Z,97959.13
2019-01-11T10:32:51.976Z,97945.09
2019-01-11T10:37:56.068Z,97944.80
2019-01-11T10:43:00.229Z,97947.06
2019-01-11T10:48:05.054Z,97940.20
2019-01-11T10:53:09.723Z,97941.07
2019-01-11T10:58:14.146Z,97950.73
2019-01-11T11:03:18.101Z,97960.89
2019-01-11T11:08:22.102Z,97954.81
2019-01-11T11:13:26.138Z,97957.18
2019-01-11T11:18:30.676Z,97958.01
2019-01-11T11:23:35.464Z,97962.59
2019-01-11T11:28:39.825Z,97971.77
2019-01-11T11:33:45.854Z,97971.48
2019-01-11T11:38:50.285Z,97973.83
2019-01-11T11:43:54.782Z,97980.87
2019-01-11T11:48:59.144Z,97980.98
2019-01-11T11:54:03.327Z,97987.80
2019-01-11T11:59:07.623Z,98000.69
2019-01-11T12:04:12.115Z,98000.14
2019-01-11T12:09:16.045Z,98006.38
2019-01-11T12:14:20.304Z,98028.83
2019-01-11T12:19:24.270Z,98023.28
2019-01-11T12:24:28.305Z,98024.45
2019-01-11T12:29:32.524Z,98021.89
2019-01-11T12:34:38.483Z,98019.39
2019-01-11T12:39:42.827Z,98024.94
2019-01-11T12:44:47.032Z,98027.66
2019-01-11T12:49:51.090Z,98033.91
2019-01-11T12:54:56.326Z,98042.88
2019-01-11T13:00:00.653Z,98040.31
2019-01-11T13:05:06.472Z,98054.28
2019-01-11T13:10:12.449Z,98067.61
2019-01-11T13:15:18.830Z,98070.72
2019-01-11T13:20:23.521Z,98077.76
2019-01-11T13:25:32.066Z,98082.92
2019-01-11T13:30:33.719Z,98096.14
2019-01-11T13:35:38.761Z,98084.38
2019-01-11T13:40:43.544Z,98095.89
2019-01-11T13:45:47.924Z,98091.48
2019-01-11T13:50:52.228Z,98086.09
2019-01-11T13:55:56.296Z,98087.81
2019-01-11T14:01:00.580Z,98093.64
2019-01-11T14:06:04.700Z,98096.08
2019-01-11T14:11:09.443Z,98099.00
2019-01-11T14:16:13.826Z,98111.47
2019-01-11T14:21:17.802Z,98107.23
2019-01-11T14:26:21.821Z,98119.22
2019-01-11T14:31:25.993Z,98128.59
2019-01-11T14:36:30.657Z,98137.47
2019-01-11T14:41:35.766Z,98143.53
2019-01-11T14:46:39.778Z,98143.00
2019-01-11T14:51:43.953Z,98150.19
2019-01-11T14:56:47.878Z,98161.58
2019-01-11T15:01:52.480Z,98152.08
2019-01-11T15:06:57.120Z,98166.66
2019-01-11T15:12:01.416Z,98156.89
2019-01-11T15:17:05.365Z,98167.06
2019-01-11T15:22:09.578Z,98174.71
2019-01-11T15:27:13.565Z,98186.20
2019-01-11T15:32:17.718Z,98185.23
2019-01-11T15:37:22.908Z,98204.09
2019-01-11T15:42:26.863Z,98207.55
2019-01-11T15:47:30.829Z,98207.05
2019-01-11T15:52:35.076Z,98214.97
2019-01-11T15:57:42.757Z,98230.38
2019-01-11T16:02:47.090Z,98229.96
2019-01-11T16:07:51.071Z,98233.98
2019-01-11T16:13:10.904Z,98233.52
2019-01-11T16:18:22.372Z,98257.03
2019-01-11T16:23:26.292Z,98259.88
2019-01-11T16:28:30.675Z,98257.48
2019-01-11T16:33:34.670Z,98262.92
2019-01-11T16:38:39.648Z,98267.53
2019-01-11T16:43:43.905Z,98276.10
2019-01-11T16:48:47.991Z,98281.92
2019-01-11T16:53:52.321Z,98294.26
2019-01-11T16:58:56.413Z,98293.87
2019-01-11T17:04:00.636Z,98301.72
2019-01-11T17:09:07.415Z,98307.36
2019-01-11T17:14:11.617Z,98306.36
2019-01-11T17:19:15.572Z,98312.78
2019-01-11T17:24:19.879Z,98313.81
2019-01-11T17:29:23.913Z,98318.58
2019-01-11T17:34:28.204Z,98323.66
2019-01-11T17:39:33.375Z,98330.68
2019-01-11T17:44:37.594Z,98330.43
2019-01-11T17:49:41.711Z,98333.72
2019-01-11T17:54:45.718Z,98336.89
2019-01-11T17:59:49.705Z,98344.23
2019-01-11T18:04:55.321Z,98342.74
2019-01-11T18:10:01.264Z,98344.28
2019-01-11T18:15:19.150Z,98345.51
2019-01-11T18:20:26.794Z,98350.84
2019-01-11T18:25:32.057Z,98359.08
2019-01-11T18:30:36.359Z,98359.05
2019-01-11T18:35:40.446Z,98359.08
2019-01-11T18:40:44.821Z,98375.12
2019-01-11T18:45:49.086Z,98353.35
2019-01-11T18:50:53.266Z,98385.11
2019-01-11T18:56:07.827Z,98389.55
2019-01-11T19:01:19.472Z,98376.44
2019-01-11T19:06:26.062Z,98377.63
2019-01-11T19:11:30.526Z,98392.84
2019-01-11T19:16:35.081Z,98392.04
2019-01-11T19:21:39.418Z,98398.14
2019-01-11T19:26:43.626Z,98406.72
2019-01-11T19:31:48.152Z,98396.84
2019-01-11T19:36:52.499Z,98401.37
2019-01-11T19:41:57.178Z,98390.17
2019-01-11T19:47:01.546Z,98389.00
2019-01-11T19:52:05.824Z,98390.27
2019-01-11T19:57:09.990Z,98378.70
2019-01-11T20:02:15.242Z,98362.73
2019-01-11T20:07:19.567Z,98367.27
2019-01-11T20:12:23.976Z,98364.91
2019-01-11T20:17:29.366Z,98371.73
2019-01-11T20:22:33.994Z,98355.53
2019-01-11T20:27:38.001Z,98356.08
2019-01-11T20:32:42.375Z,98349.22
2019-01-11T20:37:46.763Z,98333.45
2019-01-11T20:42:51.854Z,98323.67
2019-01-11T20:47:55.929Z,98314.00
2019-01-11T20:53:00.127Z,98320.60
2019-01-11T20:58:04.331Z,98327.97
2019-01-11T21:03:08.439Z,98335.00
2019-01-11T21:08:14.739Z,98335.38
2019-01-11T21:13:18.829Z,98331.91
2019-01-11T21:18:23.070Z,98331.14
2019-01-11T21:23:27.323Z,98335.47
2019-01-11T21:28:31.493Z,98350.44
2019-01-11T21:33:35.531Z,98344.65
2019-01-11T21:38:39.639Z,98358.34
2019-01-11T21:43:43.924Z,98353.88
2019-01-11T21:48:47.995Z,98350.78
2019-01-11T21:53:55.718Z,98353.98
2019-01-11T21:58:58.013Z,98337.44
2019-01-11T22:04:02.015Z,98309.20
2019-01-11T22:09:07.788Z,98313.51
2019-01-11T22:14:11.980Z,98313.30
2019-01-11T22:19:34.130Z,98316.79
2019-01-11T22:24:38.369Z,98315.82
2019-01-11T22:29:42.362Z,98315.62
2019-01-11T22:34:46.349Z,98308.05
2019-01-11T22:39:50.385Z,98307.52
2019-01-11T22:44:54.706Z,98309.66
2019-01-11T22:49:58.919Z,98296.42
2019-01-11T22:55:03.621Z,98292.31
2019-01-11T23:00:46.380Z,98298.66
2019-01-11T23:05:53.315Z,98293.03
2019-01-11T23:11:33.455Z,98291.34
2019-01-11T23:17:12.258Z,98299.02
2019-01-11T23:22:16.436Z,98305.25
2019-01-11T23:27:20.477Z,98306.59
2019-01-11T23:32:24.565Z,98304.25
2019-01-11T23:37:28.585Z,98305.47
2019-01-11T23:42:32.688Z,98305.83
2019-01-11T23:47:37.298Z,98325.08
2019-01-11T23:52:41.494Z,98322.94
2019-01-11T23:57:45.410Z,98334.48
